Time;durP1;ratioP1;P1;durP2;ratioP2;P2;SDS_P1;SDS_P2;PMS_P1;PMS_P2;Temp;Humidity;BMP_temperature;BMP_pressure;BME280_temperature;BME280_humidity;BME280_pressure;Samples;Min_cycle;Max_cycle;Signal;HPM_P1;HPM_P2
2022/07/28 00:00:21;;;;;;;1.62;1.10;;;;;;;24.87;41.21;99647.41;4391026;32;33936;-67
2022/07/28 00:02:49;;;;;;;1.25;1.15;;;;;;;24.83;41.24;99659.56;4391648;32;34039;-83
2022/07/28 00:05:16;;;;;;;1.40;1.00;;;;;;;24.85;41.38;99651.69;4392242;32;35169;-67
2022/07/28 00:07:44;;;;;;;1.80;1.30;;;;;;;24.89;41.33;99645.09;4391323;32;33144;-67
2022/07/28 00:10:12;;;;;;;1.37;1.10;;;;;;;24.96;40.73;99645.31;4390978;32;33629;-83
2022/07/28 00:12:39;;;;;;;1.87;1.23;;;;;;;25.01;39.93;99641.50;4399822;32;34239;-86
2022/07/28 00:15:07;;;;;;;1.80;1.20;;;;;;;24.82;40.09;99642.09;4406481;32;33780;-67
2022/07/28 00:17:34;;;;;;;1.92;1.23;;;;;;;24.88;40.36;99650.97;4406360;32;33674;-69
2022/07/28 00:20:03;;;;;;;1.62;1.30;;;;;;;25.28;39.78;99642.75;4391900;32;34091;-67
2022/07/28 00:22:31;;;;;;;2.08;1.25;;;;;;;25.08;40.12;99646.47;4377313;32;34293;-67
2022/07/28 00:24:58;;;;;;;1.60;1.25;;;;;;;25.20;40.76;99637.34;4390957;32;34667;-67
2022/07/28 00:27:26;;;;;;;1.55;1.20;;;;;;;25.14;40.93;99636.72;4391144;32;33412;-87
2022/07/28 00:29:53;;;;;;;1.65;1.20;;;;;;;25.03;41.39;99636.41;4390684;32;33766;-66
2022/07/28 00:32:21;;;;;;;1.60;1.10;;;;;;;25.02;41.19;99637.56;4391048;32;35137;-80
2022/07/28 00:34:50;;;;;;;1.45;1.20;;;;;;;24.40;43.58;99628.37;4377023;32;35192;-71
2022/07/28 00:37:20;;;;;;;1.17;1.08;;;;;;;25.14;41.50;99626.47;4390752;32;34521;-67
2022/07/28 00:39:47;;;;;;;1.95;1.30;;;;;;;25.02;41.32;99629.25;4377210;32;33943;-86
2022/07/28 00:42:19;;;;;;;1.50;1.10;;;;;;;24.96;41.26;99631.44;4390886;32;34272;-87
2022/07/28 00:44:47;;;;;;;1.95;1.30;;;;;;;24.98;41.45;99629.13;4379234;32;34211;-67
2022/07/28 00:47:14;;;;;;;1.92;1.30;;;;;;;24.82;41.78;99630.19;4392677;32;33678;-68
2022/07/28 00:49:43;;;;;;;1.45;1.10;;;;;;;24.81;41.53;99628.56;4401885;32;32608;-85
2022/07/28 00:52:11;;;;;;;1.70;1.20;;;;;;;24.69;41.48;99624.62;4394091;32;33664;-83
2022/07/28 00:54:39;;;;;;;1.20;1.10;;;;;;;24.95;41.67;99626.25;4391246;32;33743;-73
2022/07/28 00:57:07;;;;;;;1.83;1.42;;;;;;;25.16;41.57;99621.38;4391365;32;33388;-82
2022/07/28 00:59:34;;;;;;;3.87;1.37;;;;;;;25.33;41.48;99625.84;4393346;32;35459;-74
2022/07/28 01:02:02;;;;;;;1.80;1.20;;;;;;;25.12;41.08;99623.22;4393637;32;34118;-70
2022/07/28 01:04:30;;;;;;;1.87;1.35;;;;;;;24.79;41.74;99628.09;4392886;32;32872;-68
2022/07/28 01:07:09;;;;;;;1.83;1.20;;;;;;;24.91;41.69;99622.56;4392779;32;34002;-67
2022/07/28 01:10:12;;;;;;;1.92;1.42;;;;;;;24.90;41.93;99630.06;4378926;32;33960;-69
2022/07/28 01:12:49;;;;;;;1.87;1.12;;;;;;;24.76;42.55;99633.19;4379366;32;33583;-67
2022/07/28 01:15:28;;;;;;;2.03;1.37;;;;;;;24.57;42.67;99621.84;4392400;32;33857;-67
2022/07/28 01:18:14;;;;;;;2.28;1.30;;;;;;;24.77;42.36;99622.88;4386935;32;33642;-67
2022/07/28 01:21:03;;;;;;;2.30;1.15;;;;;;;24.89;42.36;99625.66;4386446;32;34756;-67
2022/07/28 01:23:30;;;;;;;1.70;1.23;;;;;;;25.07;42.13;99617.88;4391690;32;35040;-66
2022/07/28 01:25:57;;;;;;;1.87;1.40;;;;;;;24.83;42.03;99621.50;4392569;32;34059;-67
2022/07/28 01:28:43;;;;;;;2.33;1.35;;;;;;;24.78;41.79;99621.75;4392650;32;33861;-79
2022/07/28 01:31:20;;;;;;;2.12;1.27;;;;;;;24.56;42.29;99623.03;4378347;32;33663;-67
2022/07/28 01:33:51;;;;;;;2.08;1.40;;;;;;;24.55;42.71;99621.38;4378939;32;34733;-75
2022/07/28 01:36:22;;;;;;;2.28;1.33;;;;;;;24.77;42.09;99631.22;4378724;32;34184;-81
2022/07/28 01:38:49;;;;;;;3.15;1.50;;;;;;;24.60;42.28;99629.50;4378893;32;33632;-74
2022/07/28 01:41:19;;;;;;;1.60;1.37;;;;;;;24.10;43.42;99634.13;4390687;32;33695;-68
2022/07/28 01:43:55;;;;;;;1.80;1.30;;;;;;;24.60;42.65;99637.00;4378844;32;34811;-67
2022/07/28 01:46:23;;;;;;;2.92;1.70;;;;;;;23.86;44.56;99636.81;4378616;32;34223;-84
2022/07/28 01:48:51;;;;;;;1.65;1.30;;;;;;;23.81;44.31;99635.06;4392541;32;34241;-85
2022/07/28 01:51:19;;;;;;;2.00;1.50;;;;;;;23.92;44.23;99640.97;4392198;32;34923;-67
2022/07/28 01:53:48;;;;;;;3.40;1.48;;;;;;;24.19;43.42;99638.75;4386917;32;34019;-70
2022/07/28 01:56:17;;;;;;;2.08;1.50;;;;;;;24.26;42.76;99630.69;4387946;32;33660;-67
2022/07/28 01:58:44;;;;;;;2.03;1.50;;;;;;;23.75;43.92;99630.84;4378890;32;34438;-84
2022/07/28 02:01:13;;;;;;;1.62;1.42;;;;;;;24.16;43.02;99638.28;4375346;32;34422;-69
2022/07/28 02:03:42;;;;;;;2.80;1.52;;;;;;;23.81;44.18;99628.72;4378678;32;34023;-78
2022/07/28 02:06:11;;;;;;;1.65;1.20;;;;;;;24.04;43.50;99632.72;4378783;32;34731;-67
2022/07/28 02:08:39;;;;;;;1.70;1.40;;;;;;;23.65;44.32;99623.78;4392082;32;34389;-67
2022/07/28 02:13:53;;;;;;;1.60;1.30;;;;;;;24.04;43.19;99618.88;4395210;32;34232;-84
2022/07/28 02:16:23;;;;;;;2.03;1.40;;;;;;;23.59;44.34;99616.81;4385271;32;34780;-80
2022/07/28 02:18:52;;;;;;;2.30;1.50;;;;;;;23.75;44.28;99622.53;4392390;32;33286;-67
2022/07/28 02:21:23;;;;;;;2.67;1.30;;;;;;;23.46;45.08;99623.47;4390954;32;34827;-85
2022/07/28 02:23:52;;;;;;;2.33;1.62;;;;;;;23.19;45.50;99622.03;4378782;32;34413;-68
2022/07/28 02:26:24;;;;;;;2.05;1.50;;;;;;;23.32;45.25;99618.16;4378917;32;34215;-67
2022/07/28 02:28:54;;;;;;;4.25;1.98;;;;;;;23.46;44.87;99620.69;4392382;32;33573;-81
2022/07/28 02:31:25;;;;;;;2.15;1.50;;;;;;;23.26;45.22;99612.03;4378283;32;33836;-67
2022/07/28 02:33:55;;;;;;;2.08;1.52;;;;;;;23.33;45.23;99619.81;4378621;32;33944;-66
2022/07/28 02:36:41;;;;;;;2.10;1.62;;;;;;;23.49;44.71;99622.75;4380225;32;34926;-76
2022/07/28 02:39:22;;;;;;;2.72;1.65;;;;;;;23.34;44.85;99624.19;4391962;32;33537;-73
2022/07/28 02:41:54;;;;;;;1.60;1.42;;;;;;;23.39;44.77;99629.53;4391756;32;34788;-67
2022/07/28 02:44:30;;;;;;;1.98;1.48;;;;;;;22.91;46.13;99625.25;4378480;32;34059;-78
2022/07/28 02:46:58;;;;;;;1.52;1.40;;;;;;;22.84;46.65;99624.97;4402622;32;35004;-87
2022/07/28 02:49:30;;;;;;;2.22;1.58;;;;;;;22.16;47.96;99639.53;4393613;32;33324;-77
2022/07/28 02:51:59;;;;;;;2.85;1.62;;;;;;;22.43;47.28;99632.81;4393373;32;33371;-78
2022/07/28 02:54:29;;;;;;;2.33;1.60;;;;;;;22.53;47.35;99643.50;4373277;32;34256;-78
2022/07/28 02:56:58;;;;;;;2.22;1.60;;;;;;;22.49;47.69;99641.75;4377964;32;34735;-67
2022/07/28 02:59:26;;;;;;;2.83;1.60;;;;;;;22.57;47.32;99645.59;4391552;32;34456;-85
2022/07/28 03:01:55;;;;;;;2.62;1.70;;;;;;;22.77;46.98;99642.09;4393312;32;34277;-67
2022/07/28 03:07:10;;;;;;;2.75;1.77;;;;;;;22.87;47.16;99647.25;4377847;32;34077;-67
2022/07/28 03:09:40;;;;;;;2.58;1.70;;;;;;;23.06;46.96;99648.78;4378495;32;34332;-74
2022/07/28 03:12:09;;;;;;;3.22;1.90;;;;;;;23.15;46.35;99652.31;4377986;32;34822;-85
2022/07/28 03:14:36;;;;;;;1.95;1.45;;;;;;;23.20;46.32;99649.38;4391826;32;34308;-85
2022/07/28 03:17:04;;;;;;;2.87;1.73;;;;;;;23.01;46.78;99655.34;4392147;32;33942;-75
2022/07/28 03:19:32;;;;;;;2.47;1.60;;;;;;;22.68;47.79;99660.69;4393392;32;33681;-67
2022/07/28 03:22:00;;;;;;;2.80;1.75;;;;;;;22.53;48.24;99662.84;4404564;32;34799;-78
2022/07/28 03:24:31;;;;;;;2.95;1.50;;;;;;;22.50;48.50;99654.41;4391971;32;34203;-74
2022/07/28 03:27:07;;;;;;;2.22;1.60;;;;;;;22.28;49.23;99656.25;4378123;32;34903;-85
2022/07/28 03:29:36;;;;;;;2.30;1.62;;;;;;;22.90;47.85;99656.84;4378208;32;33636;-66
2022/07/28 03:32:04;;;;;;;2.35;1.70;;;;;;;23.09;47.04;99665.56;4377961;32;33565;-71
2022/07/28 03:34:31;;;;;;;2.40;1.90;;;;;;;22.81;47.60;99665.19;4391846;32;34370;-67
2022/07/28 03:37:02;;;;;;;2.78;1.80;;;;;;;22.89;47.48;99661.56;4380337;32;34942;-89
2022/07/28 03:39:32;;;;;;;2.70;1.80;;;;;;;22.92;47.76;99665.63;4378216;32;33636;-77
2022/07/28 03:42:01;;;;;;;1.90;1.70;;;;;;;23.12;47.16;99666.84;4374931;32;34746;-85
2022/07/28 03:44:29;;;;;;;2.25;1.60;;;;;;;22.80;48.01;99673.81;4380455;32;34260;-73
2022/07/28 03:46:56;;;;;;;3.08;1.77;;;;;;;22.58;48.90;99678.44;4391620;32;35060;-88
2022/07/28 03:49:24;;;;;;;2.58;1.50;;;;;;;22.83;48.26;99679.50;4385847;32;33432;-69
2022/07/28 03:51:51;;;;;;;2.15;1.80;;;;;;;22.92;48.65;99677.50;4390142;32;34824;-75
2022/07/28 03:54:19;;;;;;;2.12;1.67;;;;;;;22.85;48.93;99679.16;4395287;32;34953;-84
2022/07/28 03:56:46;;;;;;;3.00;1.90;;;;;;;23.17;48.56;99686.00;4391503;32;34858;-81
2022/07/28 03:59:16;;;;;;;3.12;1.58;;;;;;;22.98;49.31;99683.66;4391597;32;33638;-70
2022/07/28 04:01:44;;;;;;;2.72;1.62;;;;;;;22.69;48.99;99682.47;4377925;32;34977;-81
2022/07/28 04:04:12;;;;;;;2.97;2.05;;;;;;;22.77;49.29;99691.09;4390495;32;34171;-73
2022/07/28 04:06:40;;;;;;;3.42;1.70;;;;;;;22.41;50.09;99690.38;4389954;32;33990;-71
2022/07/28 04:09:07;;;;;;;2.42;1.73;;;;;;;22.83;49.95;99693.34;4389929;32;34017;-67
2022/07/28 04:11:35;;;;;;;2.72;1.73;;;;;;;22.98;49.50;99691.97;4389697;32;34062;-77
2022/07/28 04:14:02;;;;;;;2.50;1.67;;;;;;;23.23;48.96;99698.50;4389905;32;35070;-80
2022/07/28 04:16:30;;;;;;;3.28;2.08;;;;;;;23.81;47.66;99697.97;4378297;32;34186;-69
2022/07/28 04:18:58;;;;;;;1.85;1.60;;;;;;;23.73;47.96;99694.09;4393716;32;32870;-69
2022/07/28 04:21:25;;;;;;;2.30;1.75;;;;;;;23.47;48.97;99699.81;4380903;32;33733;-76
2022/07/28 04:23:53;;;;;;;2.30;1.90;;;;;;;23.74;48.45;99704.84;4383331;32;35144;-88
2022/07/28 04:26:27;;;;;;;2.17;1.58;;;;;;;23.61;48.87;99699.56;4394217;32;34232;-83
2022/07/28 04:28:55;;;;;;;2.72;1.80;;;;;;;23.45;50.40;99704.88;4395770;32;33755;-84
2022/07/28 04:31:22;;;;;;;3.28;2.00;;;;;;;23.47;50.45;99706.16;4395395;32;34073;-90
2022/07/28 04:33:50;;;;;;;3.28;1.95;;;;;;;23.77;49.13;99708.09;4390725;32;159313;-87
2022/07/28 04:36:18;;;;;;;2.20;1.65;;;;;;;24.10;46.77;99702.59;4393939;32;34247;-73
2022/07/28 04:38:45;;;;;;;4.82;1.55;;;;;;;23.84;47.49;99706.41;4388147;32;33283;-80
2022/07/28 04:41:13;;;;;;;3.95;1.60;;;;;;;23.76;47.54;99704.53;4395672;32;33639;-74
2022/07/28 04:43:40;;;;;;;2.30;1.55;;;;;;;24.02;47.28;99706.28;4394482;32;34739;-77
2022/07/28 04:46:08;;;;;;;2.70;1.35;;;;;;;23.91;47.15;99706.69;4391312;32;34197;-71
2022/07/28 04:48:41;;;;;;;3.23;2.10;;;;;;;23.89;47.36;99706.22;4389474;32;33747;-77
2022/07/28 04:51:09;;;;;;;2.30;1.58;;;;;;;24.07;47.00;99715.16;4397687;32;35136;-72
2022/07/28 04:53:36;;;;;;;3.50;1.60;;;;;;;23.64;48.08;99709.97;4403161;32;34805;-74
2022/07/28 04:56:04;;;;;;;2.85;1.58;;;;;;;23.81;47.92;99711.81;4410319;32;34292;-77
2022/07/28 04:58:31;;;;;;;2.15;1.60;;;;;;;24.10;47.75;99713.69;4400679;32;33343;-72
2022/07/28 05:00:59;;;;;;;3.05;1.70;;;;;;;24.27;46.92;99707.16;4398639;32;34864;-72
2022/07/28 05:03:27;;;;;;;1.65;1.33;;;;;;;24.14;47.45;99714.62;4392387;32;35080;-71
2022/07/28 05:06:02;;;;;;;3.25;1.87;;;;;;;24.17;48.03;99708.41;4395214;32;35007;-71
2022/07/28 05:08:29;;;;;;;1.98;1.65;;;;;;;24.36;47.83;99710.63;4394607;32;33645;-71
2022/07/28 05:10:57;;;;;;;2.85;1.73;;;;;;;24.66;46.64;99718.84;4394905;32;34909;-71
2022/07/28 05:13:24;;;;;;;3.45;1.95;;;;;;;24.70;46.36;99717.00;4395415;32;33892;-71
2022/07/28 05:15:58;;;;;;;2.33;1.60;;;;;;;24.94;46.11;99713.44;4395284;32;34989;-69
2022/07/28 05:18:26;;;;;;;3.03;2.00;;;;;;;25.32;45.32;99715.09;4395126;32;33699;-71
2022/07/28 05:20:53;;;;;;;2.78;1.95;;;;;;;25.26;45.15;99722.03;4395301;32;33827;-71
2022/07/28 05:23:21;;;;;;;2.12;1.70;;;;;;;24.50;47.22;99721.47;4394890;32;34251;-81
2022/07/28 05:25:48;;;;;;;1.75;1.42;;;;;;;24.75;47.80;99723.12;4395056;32;34330;-76
2022/07/28 05:28:16;;;;;;;2.42;1.70;;;;;;;25.08;47.10;99724.22;4395066;32;33690;-72
2022/07/28 05:30:44;;;;;;;1.90;1.58;;;;;;;25.19;47.53;99733.69;4390313;32;34533;-72
2022/07/28 05:33:14;;;;;;;2.03;1.62;;;;;;;25.15;47.60;99735.53;4391903;32;34194;-70
2022/07/28 05:35:43;;;;;;;2.08;1.55;;;;;;;25.24;47.00;99733.47;4390885;32;34326;-70
2022/07/28 05:38:11;;;;;;;2.20;1.70;;;;;;;25.57;46.17;99738.88;4390833;32;33337;-71
2022/07/28 05:40:38;;;;;;;2.62;1.83;;;;;;;25.43;46.75;99741.22;4392546;32;33644;-71
2022/07/28 05:43:06;;;;;;;2.25;1.52;;;;;;;25.62;45.78;99745.38;4392167;32;35090;-68
2022/07/28 05:45:34;;;;;;;2.70;1.60;;;;;;;26.01;44.72;99749.34;4392356;32;34150;-73
2022/07/28 05:48:02;;;;;;;2.30;1.67;;;;;;;26.13;44.30;99740.97;4392339;32;33650;-68
2022/07/28 05:50:29;;;;;;;2.15;1.50;;;;;;;25.58;47.73;99751.59;4392307;32;34519;-70
2022/07/28 05:52:57;;;;;;;2.30;1.67;;;;;;;25.42;46.68;99753.50;4391672;32;34280;-70
2022/07/28 05:55:25;;;;;;;2.85;2.00;;;;;;;25.17;47.26;99749.87;4392355;32;34348;-67
2022/07/28 05:57:53;;;;;;;3.40;1.75;;;;;;;25.56;47.35;99756.69;4392273;32;34553;-69
2022/07/28 06:00:21;;;;;;;2.65;1.90;;;;;;;25.33;48.09;99755.56;4391969;32;33841;-70
2022/07/28 06:02:49;;;;;;;2.83;1.90;;;;;;;25.20;48.46;99756.72;4392239;32;34280;-74
2022/07/28 06:05:19;;;;;;;3.08;2.00;;;;;;;25.33;48.43;99764.69;4392206;32;34239;-71
2022/07/28 06:07:48;;;;;;;2.85;2.20;;;;;;;25.02;49.20;99767.22;4391842;32;33695;-72
2022/07/28 06:10:18;;;;;;;3.20;1.95;;;;;;;24.85;49.85;99771.81;4392159;32;33911;-77
2022/07/28 06:12:47;;;;;;;3.67;2.05;;;;;;;25.17;48.39;99772.91;4401172;32;33520;-70
2022/07/28 06:15:19;;;;;;;3.12;2.17;;;;;;;24.96;50.00;99774.97;4407382;32;33985;-72
2022/07/28 06:17:51;;;;;;;2.50;1.83;;;;;;;24.69;50.09;99768.09;4395266;32;33336;-70
2022/07/28 06:20:20;;;;;;;3.25;2.17;;;;;;;24.65;51.01;99772.72;4408724;32;33885;-82
2022/07/28 06:22:49;;;;;;;2.75;2.00;;;;;;;25.40;48.32;99764.16;4395040;32;34945;-71
2022/07/28 06:25:22;;;;;;;2.95;1.92;;;;;;;25.46;48.54;99776.62;4395172;32;34206;-69
2022/07/28 06:27:55;;;;;;;2.50;2.03;;;;;;;25.77;47.63;99781.56;4394712;32;33641;-72
2022/07/28 06:30:23;;;;;;;2.60;2.00;;;;;;;26.22;45.39;99779.75;4408353;32;33982;-74
2022/07/28 06:32:51;;;;;;;4.10;2.15;;;;;;;26.27;46.07;99787.81;4394572;32;34354;-72
2022/07/28 06:35:19;;;;;;;3.37;2.00;;;;;;;26.88;44.81;99788.72;4408328;32;33875;-79
2022/07/28 06:37:48;;;;;;;3.25;1.98;;;;;;;27.57;43.06;99792.03;4394687;32;33629;-71
2022/07/28 06:40:17;;;;;;;2.90;2.25;;;;;;;28.02;41.50;99787.87;4406966;32;33754;-72
2022/07/28 06:42:46;;;;;;;2.42;1.80;;;;;;;28.16;40.55;99787.37;4407121;32;33622;-76
2022/07/28 06:45:14;;;;;;;2.37;1.87;;;;;;;28.26;39.99;99788.78;4408451;32;34910;-88
2022/07/28 06:47:49;;;;;;;2.47;1.83;;;;;;;28.49;39.65;99788.84;4395021;32;33276;-72
2022/07/28 06:50:17;;;;;;;2.25;1.95;;;;;;;28.80;39.46;99787.84;4408232;32;33569;-84
2022/07/28 06:52:56;;;;;;;2.90;2.30;;;;;;;29.54;36.40;99787.50;4408256;32;34974;-87
2022/07/28 06:55:25;;;;;;;3.22;2.15;;;;;;;28.72;37.38;99788.88;4394709;32;34290;-73
2022/07/28 06:58:02;;;;;;;2.50;2.00;;;;;;;28.06;38.61;99793.56;4395496;32;33591;-73
2022/07/28 07:00:30;;;;;;;3.80;2.22;;;;;;;28.88;36.57;99800.78;4405996;32;33763;-71
2022/07/28 07:02:58;;;;;;;3.53;2.20;;;;;;;28.57;37.31;99798.97;4392672;32;33878;-71
2022/07/28 07:05:30;;;;;;;3.17;2.20;;;;;;;26.78;40.73;99802.00;4393001;32;35029;-64
2022/07/28 07:07:58;;;;;;;2.72;2.00;;;;;;;28.97;37.29;99798.53;4392708;32;34282;-71
2022/07/28 07:10:26;;;;;;;3.35;1.87;;;;;;;30.31;35.42;99793.81;4392946;32;33971;-66
2022/07/28 07:12:54;;;;;;;2.92;1.90;;;;;;;31.74;32.12;99796.34;4392686;32;35070;-66
2022/07/28 07:15:21;;;;;;;3.30;2.00;;;;;;;32.08;30.50;99791.34;4392506;32;35196;-66
2022/07/28 07:17:49;;;;;;;3.50;2.10;;;;;;;32.08;30.56;99794.16;4392871;32;33707;-64
2022/07/28 07:20:16;;;;;;;3.00;2.10;;;;;;;32.11;31.36;99798.97;4392661;32;34120;-71
2022/07/28 07:22:46;;;;;;;3.55;1.90;;;;;;;31.80;31.45;99795.59;4392539;32;34292;-67
2022/07/28 07:25:15;;;;;;;3.40;2.30;;;;;;;31.38;32.13;99798.88;4392687;32;34963;-72
2022/07/28 07:27:44;;;;;;;3.95;1.90;;;;;;;30.84;31.25;99796.38;4392552;32;33886;-73
2022/07/28 07:30:12;;;;;;;3.15;2.20;;;;;;;30.04;32.96;99799.44;4391900;32;34083;-72
2022/07/28 07:32:40;;;;;;;3.45;2.08;;;;;;;29.68;34.75;99800.91;4392166;32;34213;-72
2022/07/28 07:35:08;;;;;;;3.42;2.10;;;;;;;28.57;35.77;99797.00;4392352;32;34356;-69
2022/07/28 07:37:36;;;;;;;3.72;2.17;;;;;;;29.13;33.99;99801.22;4392497;32;34548;-73
2022/07/28 07:40:04;;;;;;;2.75;2.20;;;;;;;29.24;33.55;99799.44;4396758;32;33822;-74
2022/07/28 07:42:32;;;;;;;2.58;2.10;;;;;;;28.38;36.21;99806.19;4407005;32;34186;-68
2022/07/28 07:45:00;;;;;;;3.42;2.37;;;;;;;27.87;35.92;99800.72;4406930;32;34173;-70
2022/07/28 07:47:27;;;;;;;3.37;2.25;;;;;;;27.53;37.40;99791.12;4407715;32;33584;-71
2022/07/28 07:49:55;;;;;;;3.20;2.30;;;;;;;27.92;36.53;99794.03;4407402;32;34002;-70
2022/07/28 07:52:22;;;;;;;3.42;2.30;;;;;;;28.44;36.42;99792.72;4406398;32;34298;-64
2022/07/28 07:54:50;;;;;;;2.72;2.10;;;;;;;27.94;37.55;99789.69;4405207;32;34236;-64
2022/07/28 07:57:17;;;;;;;3.03;2.40;;;;;;;27.98;37.97;99785.00;4405166;32;34434;-71
2022/07/28 07:59:45;;;;;;;3.40;2.40;;;;;;;27.62;38.20;99792.56;4405498;32;34014;-72
2022/07/28 08:02:12;;;;;;;3.17;2.12;;;;;;;28.33;35.88;99800.06;4405266;32;35176;-74
2022/07/28 08:04:40;;;;;;;4.22;2.78;;;;;;;28.41;36.34;99790.69;4404714;32;34668;-66
2022/07/28 08:07:09;;;;;;;8.20;2.20;;;;;;;27.83;36.84;99785.84;4405669;32;33300;-73
2022/07/28 08:09:36;;;;;;;2.92;2.17;;;;;;;27.76;38.56;99794.84;4407567;32;34079;-64
2022/07/28 08:12:04;;;;;;;3.58;2.20;;;;;;;28.48;37.37;99792.78;4407428;32;33973;-71
2022/07/28 08:14:32;;;;;;;4.22;2.45;;;;;;;28.34;37.26;99791.34;4407552;32;35016;-74
2022/07/28 08:16:59;;;;;;;2.70;2.10;;;;;;;28.20;36.43;99793.81;4406747;32;34661;-71
2022/07/28 08:19:27;;;;;;;2.47;2.22;;;;;;;28.25;36.85;99790.75;4406632;32;33841;-65
2022/07/28 08:21:54;;;;;;;4.70;2.80;;;;;;;27.96;38.98;99794.91;4407512;32;34311;-73
2022/07/28 08:24:22;;;;;;;4.37;2.55;;;;;;;27.54;37.87;99790.78;4406105;32;33332;-71
2022/07/28 08:27:01;;;;;;;3.40;2.30;;;;;;;27.76;37.56;99788.47;4407454;32;33759;-72
2022/07/28 08:29:29;;;;;;;3.92;2.28;;;;;;;28.62;36.38;99784.75;4407056;32;34699;-65
2022/07/28 08:31:56;;;;;;;2.97;2.00;;;;;;;28.53;37.44;99789.72;4407084;32;34642;-65
2022/07/28 08:34:24;;;;;;;3.12;2.20;;;;;;;29.12;35.10;99790.44;4406952;32;34259;-69
2022/07/28 08:37:01;;;;;;;3.75;2.55;;;;;;;28.20;36.05;99785.47;4407334;32;34148;-64
2022/07/28 08:39:33;;;;;;;3.62;2.15;;;;;;;28.75;35.57;99800.12;4398325;32;34706;-72
2022/07/28 08:42:05;;;;;;;4.47;2.22;;;;;;;28.73;36.05;99798.91;4392271;32;35087;-72
2022/07/28 08:44:41;;;;;;;3.67;2.40;;;;;;;29.23;34.60;99794.22;4391808;32;34308;-64
2022/07/28 08:47:10;;;;;;;2.90;2.30;;;;;;;29.63;35.36;99798.41;4392223;32;34419;-64
2022/07/28 08:49:44;;;;;;;4.80;2.45;;;;;;;29.69;34.86;99788.56;4391914;32;34670;-73
2022/07/28 08:52:12;;;;;;;4.87;2.30;;;;;;;29.63;36.07;99793.66;4391787;32;34087;-71
2022/07/28 08:54:42;;;;;;;3.22;2.28;;;;;;;30.34;32.75;99790.22;4391781;32;34218;-72
2022/07/28 08:57:16;;;;;;;3.17;2.33;;;;;;;30.21;32.60;99786.84;4391933;32;33808;-65
2022/07/28 08:59:45;;;;;;;3.03;2.40;;;;;;;28.97;34.26;99792.16;4391873;32;34973;-73
2022/07/28 09:02:13;;;;;;;6.12;2.87;;;;;;;29.32;33.64;99783.56;4391787;32;33908;-74
2022/07/28 09:04:41;;;;;;;3.10;1.90;;;;;;;28.37;34.41;99792.59;4392614;32;34960;-66
2022/07/28 09:07:09;;;;;;;4.75;2.40;;;;;;;28.52;34.46;99790.91;4380314;32;33683;-64
2022/07/28 09:09:38;;;;;;;2.28;2.00;;;;;;;29.46;33.61;99785.81;4380257;32;33771;-73
2022/07/28 09:12:06;;;;;;;3.40;2.10;;;;;;;29.15;33.38;99781.31;4393619;32;34125;-74
2022/07/28 09:14:34;;;;;;;2.53;2.10;;;;;;;28.83;33.98;99787.94;4394053;32;34962;-73
2022/07/28 09:17:02;;;;;;;1.70;1.60;;;;;;;28.94;32.80;99776.12;4393756;32;33808;-64
2022/07/28 09:19:32;;;;;;;3.30;2.08;;;;;;;29.91;31.45;99781.25;4393593;32;35023;-64
2022/07/28 09:22:02;;;;;;;2.03;1.73;;;;;;;30.18;35.34;99784.03;4393946;32;33829;-65
2022/07/28 09:24:38;;;;;;;2.78;1.98;;;;;;;29.56;31.97;99779.53;4393681;32;35002;-64
2022/07/28 09:27:11;;;;;;;2.50;1.85;;;;;;;28.96;32.31;99773.75;4393711;32;33469;-65
2022/07/28 09:29:47;;;;;;;1.70;1.60;;;;;;;29.98;32.29;99781.38;4393786;32;34025;-65
2022/07/28 09:32:16;;;;;;;3.05;1.92;;;;;;;30.11;30.85;99775.53;4391058;32;34185;-66
2022/07/28 09:34:45;;;;;;;1.85;1.65;;;;;;;30.14;30.93;99778.38;4379763;32;34278;-66
2022/07/28 09:37:17;;;;;;;2.35;1.90;;;;;;;30.07;32.12;99772.69;4393208;32;34402;-64
2022/07/28 09:39:59;;;;;;;2.30;1.92;;;;;;;29.73;32.14;99771.84;4393669;32;34684;-64
2022/07/28 09:42:44;;;;;;;3.35;2.08;;;;;;;30.42;30.75;99766.72;4393179;32;35120;-66
2022/07/28 09:45:12;;;;;;;2.40;1.95;;;;;;;30.70;30.26;99768.22;4393577;32;34474;-69
2022/07/28 09:48:08;;;;;;;5.32;1.92;;;;;;;29.68;32.44;99770.16;4393491;32;34459;-68
2022/07/28 09:50:38;;;;;;;2.95;1.87;;;;;;;30.58;31.64;99760.91;4393630;32;34174;-69
2022/07/28 09:53:20;;;;;;;2.60;1.85;;;;;;;29.80;30.68;99757.94;4392940;32;34081;-67
2022/07/28 09:55:57;;;;;;;2.90;2.12;;;;;;;30.59;30.50;99756.91;4392611;32;34354;-68
2022/07/28 09:58:26;;;;;;;3.05;2.20;;;;;;;30.90;30.51;99754.84;4392360;32;33871;-67
2022/07/28 10:01:03;;;;;;;2.40;2.00;;;;;;;31.22;30.14;99749.50;4391149;32;34701;-68
2022/07/28 10:03:38;;;;;;;3.37;2.08;;;;;;;31.46;30.52;99750.09;4392277;32;34284;-67
2022/07/28 10:06:10;;;;;;;2.10;1.70;;;;;;;30.93;29.02;99753.25;4390403;32;34339;-67
2022/07/28 10:08:42;;;;;;;2.60;1.87;;;;;;;30.33;29.50;99746.66;4392420;32;33708;-68
2022/07/28 10:11:10;;;;;;;2.45;1.85;;;;;;;31.17;28.70;99744.25;4389713;32;33622;-66
2022/07/28 10:13:59;;;;;;;2.97;1.90;;;;;;;30.63;29.30;99749.37;4377131;32;33519;-66
2022/07/28 10:16:29;;;;;;;2.90;2.15;;;;;;;30.28;29.64;99746.97;4376425;32;34323;-67
2022/07/28 10:18:59;;;;;;;2.85;2.03;;;;;;;30.14;29.73;99742.00;4377175;32;33528;-67
2022/07/28 10:21:27;;;;;;;2.85;1.95;;;;;;;29.91;29.91;99739.31;4376842;32;34677;-68
2022/07/28 10:23:57;;;;;;;3.47;2.00;;;;;;;30.35;30.97;99741.47;4363581;32;33978;-66
2022/07/28 10:26:38;;;;;;;2.47;2.00;;;;;;;30.72;31.98;99734.25;4376600;32;34437;-68
2022/07/28 10:29:08;;;;;;;2.17;1.90;;;;;;;30.16;30.92;99736.81;4375817;32;33396;-67
2022/07/28 10:31:45;;;;;;;2.50;2.05;;;;;;;30.75;31.14;99734.25;4376943;32;34814;-68
2022/07/28 10:34:22;;;;;;;5.22;2.35;;;;;;;31.16;29.16;99731.44;4376678;32;34333;-67
2022/07/28 10:36:54;;;;;;;2.50;2.05;;;;;;;31.44;28.91;99730.84;4375435;32;34283;-67
2022/07/28 10:39:23;;;;;;;2.95;2.15;;;;;;;31.46;29.01;99727.66;4363589;32;33236;-66
2022/07/28 10:41:50;;;;;;;2.55;1.80;;;;;;;31.90;28.46;99740.72;4368379;32;34737;-66
2022/07/28 10:44:18;;;;;;;2.87;1.77;;;;;;;31.99;28.64;99726.37;4391809;32;34234;-69
2022/07/28 10:46:46;;;;;;;2.70;1.90;;;;;;;31.23;28.29;99728.69;4378276;32;34947;-67
2022/07/28 10:49:14;;;;;;;4.03;2.30;;;;;;;30.95;29.60;99732.09;4391817;32;33908;-67
2022/07/28 10:51:46;;;;;;;2.53;2.15;;;;;;;31.50;29.43;99724.88;4391909;32;33994;-65
2022/07/28 10:54:37;;;;;;;3.05;2.20;;;;;;;31.96;28.77;99722.28;4380330;32;34005;-67
2022/07/28 10:57:10;;;;;;;2.58;2.25;;;;;;;31.45;28.34;99724.06;4377980;32;34038;-66
2022/07/28 10:59:53;;;;;;;2.50;2.25;;;;;;;31.76;29.29;99721.03;4391678;32;34513;-66
2022/07/28 11:02:45;;;;;;;3.90;1.87;;;;;;;32.12;29.54;99718.37;4391698;32;33759;-68
2022/07/28 11:05:26;;;;;;;2.45;1.90;;;;;;;32.63;28.84;99711.69;4392026;32;34178;-67
2022/07/28 11:07:55;;;;;;;3.55;2.10;;;;;;;32.99;27.52;99706.91;4391476;32;35020;-67
2022/07/28 11:10:23;;;;;;;2.55;2.00;;;;;;;33.29;26.69;99700.88;4391613;32;34422;-68
2022/07/28 11:12:58;;;;;;;2.65;1.90;;;;;;;33.35;26.57;99703.25;4391409;32;34620;-67
2022/07/28 11:15:29;;;;;;;2.87;2.20;;;;;;;33.68;26.16;99702.00;4391795;32;34233;-68
2022/07/28 11:18:04;;;;;;;3.12;2.08;;;;;;;33.15;26.39;99691.66;4391935;32;34321;-68
2022/07/28 11:20:56;;;;;;;2.70;2.22;;;;;;;33.45;25.93;99697.59;4391596;32;33981;-68
2022/07/28 11:23:52;;;;;;;2.62;1.98;;;;;;;33.36;26.16;99699.25;4391746;32;34793;-68
2022/07/28 11:26:23;;;;;;;2.58;2.05;;;;;;;34.01;24.88;99697.03;4391166;32;34107;-68
2022/07/28 11:28:56;;;;;;;2.12;1.92;;;;;;;33.69;25.67;99692.34;4390673;32;34233;-67
2022/07/28 11:31:42;;;;;;;2.83;2.03;;;;;;;33.02;28.79;99702.47;4391628;32;34251;-66
2022/07/28 11:34:21;;;;;;;2.80;1.92;;;;;;;33.41;26.89;99704.44;4391444;32;34001;-68
2022/07/28 11:37:05;;;;;;;2.30;1.87;;;;;;;33.92;26.42;99695.47;4391478;32;34256;-66
2022/07/28 11:39:37;;;;;;;4.72;2.15;;;;;;;34.06;25.12;99700.22;4391832;32;34164;-67
2022/07/28 11:42:23;;;;;;;2.33;1.77;;;;;;;33.88;26.79;99697.47;4391176;32;33714;-69
2022/07/28 11:44:51;;;;;;;2.85;2.10;;;;;;;34.37;25.39;99689.22;4391571;32;33835;-69
2022/07/28 11:47:22;;;;;;;2.60;2.20;;;;;;;32.16;27.16;99691.94;4377637;32;33881;-68
2022/07/28 11:50:12;;;;;;;2.42;1.65;;;;;;;32.12;28.62;99699.56;4391413;32;34422;-69
2022/07/28 11:52:52;;;;;;;3.17;2.33;;;;;;;32.16;28.15;99694.75;4391545;32;33579;-68
2022/07/28 11:55:20;;;;;;;2.10;1.80;;;;;;;31.96;28.32;99697.03;4390995;32;33672;-66